Terminal Aerodrome Forecast
Issued by NWS

Home | Current Version | Previous Version | Text Only | Print | Product List | Glossary On
Versions: 1 2 3 4 5 6 7 8 9 10 11 12 13 14 15 16 17 18 19 20 21
000
FTPA31 PHFO 241748
TAFMDY
TAF
PMDY 241748Z 2418/2518 27015KT P6SM VCSH SCT010 BKN040
     FM242100 31011KT P6SM SCT025 SCT120=

USA.gov is the U.S. government's official web portal to all federal, state and local government web resources and services.